sensor_id;sensor_type;location;lat;lon;timestamp;temperature;humidity
44063;DHT22;29727;47.606;19.130;2022-11-03T00:00:01;13.10;75.40
44063;DHT22;29727;47.606;19.130;2022-11-03T00:02:26;13.00;75.40
44063;DHT22;29727;47.606;19.130;2022-11-03T00:04:52;13.00;75.00
44063;DHT22;29727;47.606;19.130;2022-11-03T00:07:21;13.00;75.10
44063;DHT22;29727;47.606;19.130;2022-11-03T00:09:47;12.90;75.40
44063;DHT22;29727;47.606;19.130;2022-11-03T00:12:12;12.90;76.30
44063;DHT22;29727;47.606;19.130;2022-11-03T00:14:38;12.80;76.30
44063;DHT22;29727;47.606;19.130;2022-11-03T00:17:04;12.70;76.50
44063;DHT22;29727;47.606;19.130;2022-11-03T00:19:29;12.70;76.70
44063;DHT22;29727;47.606;19.130;2022-11-03T00:21:55;12.60;75.90
44063;DHT22;29727;47.606;19.130;2022-11-03T00:24:23;12.60;76.40
44063;DHT22;29727;47.606;19.130;2022-11-03T00:26:49;12.60;76.20
44063;DHT22;29727;47.606;19.130;2022-11-03T00:29:15;12.60;76.40
44063;DHT22;29727;47.606;19.130;2022-11-03T00:31:43;12.60;76.60
44063;DHT22;29727;47.606;19.130;2022-11-03T00:34:09;12.60;76.40
44063;DHT22;29727;47.606;19.130;2022-11-03T00:36:40;12.50;76.50
44063;DHT22;29727;47.606;19.130;2022-11-03T00:39:07;12.40;76.70
44063;DHT22;29727;47.606;19.130;2022-11-03T00:41:57;12.40;77.20
44063;DHT22;29727;47.606;19.130;2022-11-03T00:44:22;12.40;78.40
44063;DHT22;29727;47.606;19.130;2022-11-03T00:46:48;12.30;80.70
44063;DHT22;29727;47.606;19.130;2022-11-03T00:49:14;12.40;81.00
44063;DHT22;29727;47.606;19.130;2022-11-03T00:51:39;12.40;81.30
44063;DHT22;29727;47.606;19.130;2022-11-03T00:54:05;12.40;81.70
44063;DHT22;29727;47.606;19.130;2022-11-03T00:56:34;12.50;81.80
44063;DHT22;29727;47.606;19.130;2022-11-03T01:02:22;12.60;81.60
44063;DHT22;29727;47.606;19.130;2022-11-03T01:04:47;12.60;81.20
44063;DHT22;29727;47.606;19.130;2022-11-03T01:07:31;12.70;81.00
44063;DHT22;29727;47.606;19.130;2022-11-03T01:09:57;12.70;80.80
44063;DHT22;29727;47.606;19.130;2022-11-03T01:12:22;12.80;80.70
44063;DHT22;29727;47.606;19.130;2022-11-03T01:14:50;12.80;80.60
44063;DHT22;29727;47.606;19.130;2022-11-03T01:17:27;12.80;80.60
44063;DHT22;29727;47.606;19.130;2022-11-03T01:19:53;12.90;80.60
44063;DHT22;29727;47.606;19.130;2022-11-03T01:22:21;12.90;80.00
44063;DHT22;29727;47.606;19.130;2022-11-03T01:24:47;12.90;80.50
44063;DHT22;29727;47.606;19.130;2022-11-03T01:27:15;12.90;80.40
44063;DHT22;29727;47.606;19.130;2022-11-03T01:29:42;13.00;80.30
44063;DHT22;29727;47.606;19.130;2022-11-03T01:32:08;13.00;79.90
44063;DHT22;29727;47.606;19.130;2022-11-03T01:34:34;13.00;79.70
44063;DHT22;29727;47.606;19.130;2022-11-03T01:37:00;13.10;79.50
44063;DHT22;29727;47.606;19.130;2022-11-03T01:39:26;13.10;79.30
44063;DHT22;29727;47.606;19.130;2022-11-03T01:41:52;13.10;79.20
44063;DHT22;29727;47.606;19.130;2022-11-03T01:49:34;13.20;79.10
44063;DHT22;29727;47.606;19.130;2022-11-03T01:52:05;13.20;78.70
44063;DHT22;29727;47.606;19.130;2022-11-03T01:54:33;13.20;78.30
44063;DHT22;29727;47.606;19.130;2022-11-03T01:57:04;13.20;77.90
44063;DHT22;29727;47.606;19.130;2022-11-03T01:59:31;13.20;77.50
44063;DHT22;29727;47.606;19.130;2022-11-03T02:01:57;13.20;77.30
44063;DHT22;29727;47.606;19.130;2022-11-03T02:04:26;13.20;77.10
44063;DHT22;29727;47.606;19.130;2022-11-03T02:06:58;13.20;77.00
44063;DHT22;29727;47.606;19.130;2022-11-03T02:09:27;13.10;76.90
44063;DHT22;29727;47.606;19.130;2022-11-03T02:11:54;13.20;76.70
44063;DHT22;29727;47.606;19.130;2022-11-03T02:14:32;13.10;76.40
44063;DHT22;29727;47.606;19.130;2022-11-03T02:17:01;13.10;76.50
44063;DHT22;29727;47.606;19.130;2022-11-03T02:19:45;13.00;76.50
44063;DHT22;29727;47.606;19.130;2022-11-03T02:25:49;12.90;76.50
44063;DHT22;29727;47.606;19.130;2022-11-03T02:28:27;12.90;76.60
44063;DHT22;29727;47.606;19.130;2022-11-03T02:31:26;12.80;76.10
44063;DHT22;29727;47.606;19.130;2022-11-03T02:34:13;12.70;76.20
44063;DHT22;29727;47.606;19.130;2022-11-03T02:36:50;12.70;76.60
44063;DHT22;29727;47.606;19.130;2022-11-03T02:39:24;12.60;76.50
44063;DHT22;29727;47.606;19.130;2022-11-03T02:41:52;12.50;76.60
44063;DHT22;29727;47.606;19.130;2022-11-03T02:44:21;12.40;76.00
44063;DHT22;29727;47.606;19.130;2022-11-03T02:46:55;12.40;76.50
44063;DHT22;29727;47.606;19.130;2022-11-03T02:49:22;12.40;76.90
44063;DHT22;29727;47.606;19.130;2022-11-03T02:51:56;12.30;77.10
44063;DHT22;29727;47.606;19.130;2022-11-03T02:54:25;12.30;77.00
44063;DHT22;29727;47.606;19.130;2022-11-03T02:56:56;12.30;77.00
44063;DHT22;29727;47.606;19.130;2022-11-03T02:59:27;12.20;76.60
44063;DHT22;29727;47.606;19.130;2022-11-03T03:02:08;12.20;76.50
44063;DHT22;29727;47.606;19.130;2022-11-03T03:04:55;12.10;76.20
44063;DHT22;29727;47.606;19.130;2022-11-03T03:07:35;12.10;75.50
44063;DHT22;29727;47.606;19.130;2022-11-03T03:10:22;12.10;75.50
44063;DHT22;29727;47.606;19.130;2022-11-03T03:12:52;12.00;75.20
44063;DHT22;29727;47.606;19.130;2022-11-03T03:15:24;11.90;75.10
44063;DHT22;29727;47.606;19.130;2022-11-03T03:17:54;11.90;75.70
44063;DHT22;29727;47.606;19.130;2022-11-03T03:20:39;11.90;74.80
44063;DHT22;29727;47.606;19.130;2022-11-03T03:23:25;11.80;74.20
44063;DHT22;29727;47.606;19.130;2022-11-03T03:28:28;11.70;74.50
44063;DHT22;29727;47.606;19.130;2022-11-03T03:30:59;11.60;74.40
44063;DHT22;29727;47.606;19.130;2022-11-03T03:33:26;11.60;74.30
44063;DHT22;29727;47.606;19.130;2022-11-03T03:35:53;11.50;74.50
44063;DHT22;29727;47.606;19.130;2022-11-03T03:38:26;11.50;74.60
44063;DHT22;29727;47.606;19.130;2022-11-03T03:40:55;11.40;74.30
44063;DHT22;29727;47.606;19.130;2022-11-03T03:43:23;11.40;74.30
44063;DHT22;29727;47.606;19.130;2022-11-03T03:45:51;11.30;73.70
44063;DHT22;29727;47.606;19.130;2022-11-03T03:48:19;11.30;74.30
44063;DHT22;29727;47.606;19.130;2022-11-03T03:50:47;11.30;74.30
44063;DHT22;29727;47.606;19.130;2022-11-03T03:53:15;11.30;74.50
44063;DHT22;29727;47.606;19.130;2022-11-03T03:55:45;11.20;74.60
44063;DHT22;29727;47.606;19.130;2022-11-03T03:58:13;11.10;74.60
44063;DHT22;29727;47.606;19.130;2022-11-03T04:00:40;11.10;75.00
44063;DHT22;29727;47.606;19.130;2022-11-03T04:03:11;11.00;75.10
44063;DHT22;29727;47.606;19.130;2022-11-03T04:05:38;11.00;75.10
44063;DHT22;29727;47.606;19.130;2022-11-03T04:08:04;11.00;75.20
44063;DHT22;29727;47.606;19.130;2022-11-03T04:10:29;10.90;75.50
44063;DHT22;29727;47.606;19.130;2022-11-03T04:12:55;10.90;75.50
44063;DHT22;29727;47.606;19.130;2022-11-03T04:15:39;10.90;75.50
44063;DHT22;29727;47.606;19.130;2022-11-03T04:18:18;10.80;75.60
44063;DHT22;29727;47.606;19.130;2022-11-03T04:21:03;10.80;75.70
44063;DHT22;29727;47.606;19.130;2022-11-03T04:23:48;10.80;75.40
44063;DHT22;29727;47.606;19.130;2022-11-03T04:26:15;10.80;76.00
44063;DHT22;29727;47.606;19.130;2022-11-03T04:28:42;10.70;76.10
44063;DHT22;29727;47.606;19.130;2022-11-03T04:31:15;10.70;76.10
44063;DHT22;29727;47.606;19.130;2022-11-03T04:33:42;10.70;76.10
44063;DHT22;29727;47.606;19.130;2022-11-03T04:38:38;10.70;76.50
44063;DHT22;29727;47.606;19.130;2022-11-03T04:41:14;10.70;77.00
44063;DHT22;29727;47.606;19.130;2022-11-03T04:43:40;10.60;77.00
44063;DHT22;29727;47.606;19.130;2022-11-03T04:46:10;10.60;77.50
44063;DHT22;29727;47.606;19.130;2022-11-03T04:48:36;10.60;77.80
44063;DHT22;29727;47.606;19.130;2022-11-03T04:51:21;10.60;78.00
44063;DHT22;29727;47.606;19.130;2022-11-03T04:53:54;10.60;78.10
44063;DHT22;29727;47.606;19.130;2022-11-03T04:56:23;10.50;78.00
44063;DHT22;29727;47.606;19.130;2022-11-03T04:58:50;10.50;78.00
44063;DHT22;29727;47.606;19.130;2022-11-03T05:01:18;10.50;78.30
44063;DHT22;29727;47.606;19.130;2022-11-03T05:03:48;10.50;78.90
44063;DHT22;29727;47.606;19.130;2022-11-03T05:06:22;10.50;78.40
44063;DHT22;29727;47.606;19.130;2022-11-03T05:08:55;10.50;78.60
44063;DHT22;29727;47.606;19.130;2022-11-03T05:11:38;10.50;78.60
44063;DHT22;29727;47.606;19.130;2022-11-03T05:14:22;10.40;78.40
44063;DHT22;29727;47.606;19.130;2022-11-03T05:16:50;10.40;78.40
44063;DHT22;29727;47.606;19.130;2022-11-03T05:19:30;10.40;78.40
44063;DHT22;29727;47.606;19.130;2022-11-03T05:21:59;10.40;77.80
44063;DHT22;29727;47.606;19.130;2022-11-03T05:24:27;10.40;78.20
44063;DHT22;29727;47.606;19.130;2022-11-03T05:26:55;10.40;78.10
44063;DHT22;29727;47.606;19.130;2022-11-03T05:31:56;10.40;77.60
44063;DHT22;29727;47.606;19.130;2022-11-03T05:34:27;10.40;77.40
44063;DHT22;29727;47.606;19.130;2022-11-03T05:39:47;10.30;77.80
44063;DHT22;29727;47.606;19.130;2022-11-03T05:42:41;10.30;77.10
44063;DHT22;29727;47.606;19.130;2022-11-03T05:45:25;10.30;76.90
44063;DHT22;29727;47.606;19.130;2022-11-03T05:47:54;10.30;77.00
44063;DHT22;29727;47.606;19.130;2022-11-03T05:50:22;10.20;76.90
44063;DHT22;29727;47.606;19.130;2022-11-03T05:52:58;10.20;77.00
44063;DHT22;29727;47.606;19.130;2022-11-03T05:55:34;10.20;77.10
44063;DHT22;29727;47.606;19.130;2022-11-03T05:58:18;10.20;77.80
44063;DHT22;29727;47.606;19.130;2022-11-03T06:00:46;10.10;77.20
44063;DHT22;29727;47.606;19.130;2022-11-03T06:03:17;10.10;77.30
44063;DHT22;29727;47.606;19.130;2022-11-03T06:05:45;10.10;77.60
44063;DHT22;29727;47.606;19.130;2022-11-03T06:08:34;10.10;77.70
44063;DHT22;29727;47.606;19.130;2022-11-03T06:11:01;10.10;77.80
44063;DHT22;29727;47.606;19.130;2022-11-03T06:13:37;10.10;77.30
44063;DHT22;29727;47.606;19.130;2022-11-03T06:16:05;10.10;77.70
44063;DHT22;29727;47.606;19.130;2022-11-03T06:18:37;10.10;78.00
44063;DHT22;29727;47.606;19.130;2022-11-03T06:21:13;10.10;78.10
44063;DHT22;29727;47.606;19.130;2022-11-03T06:23:41;10.10;78.70
44063;DHT22;29727;47.606;19.130;2022-11-03T06:26:33;10.10;79.30
44063;DHT22;29727;47.606;19.130;2022-11-03T06:28:59;10.10;79.40
44063;DHT22;29727;47.606;19.130;2022-11-03T06:31:29;10.20;79.80
44063;DHT22;29727;47.606;19.130;2022-11-03T06:33:56;10.20;80.10
44063;DHT22;29727;47.606;19.130;2022-11-03T06:36:30;10.20;80.50
44063;DHT22;29727;47.606;19.130;2022-11-03T06:39:00;10.30;81.60
44063;DHT22;29727;47.606;19.130;2022-11-03T06:41:29;10.30;82.30
44063;DHT22;29727;47.606;19.130;2022-11-03T06:43:59;10.30;82.80
44063;DHT22;29727;47.606;19.130;2022-11-03T06:46:25;10.40;83.00
44063;DHT22;29727;47.606;19.130;2022-11-03T06:48:54;10.40;83.30
44063;DHT22;29727;47.606;19.130;2022-11-03T06:51:21;10.50;83.80
44063;DHT22;29727;47.606;19.130;2022-11-03T06:53:53;10.60;84.10
44063;DHT22;29727;47.606;19.130;2022-11-03T06:56:23;10.70;84.60
44063;DHT22;29727;47.606;19.130;2022-11-03T06:58:51;10.70;85.10
44063;DHT22;29727;47.606;19.130;2022-11-03T07:01:21;10.80;85.80
44063;DHT22;29727;47.606;19.130;2022-11-03T07:03:49;10.80;85.30
44063;DHT22;29727;47.606;19.130;2022-11-03T07:06:22;10.90;85.20
44063;DHT22;29727;47.606;19.130;2022-11-03T07:08:54;10.90;85.10
44063;DHT22;29727;47.606;19.130;2022-11-03T07:13:51;11.00;85.80
44063;DHT22;29727;47.606;19.130;2022-11-03T07:18:48;11.00;84.60
44063;DHT22;29727;47.606;19.130;2022-11-03T07:21:27;11.00;85.00
44063;DHT22;29727;47.606;19.130;2022-11-03T07:23:55;11.00;85.50
44063;DHT22;29727;47.606;19.130;2022-11-03T07:26:22;11.00;85.80
44063;DHT22;29727;47.606;19.130;2022-11-03T07:28:47;11.00;85.70
44063;DHT22;29727;47.606;19.130;2022-11-03T07:31:19;11.10;86.10
44063;DHT22;29727;47.606;19.130;2022-11-03T07:33:46;11.20;86.30
44063;DHT22;29727;47.606;19.130;2022-11-03T07:36:18;11.30;85.30
44063;DHT22;29727;47.606;19.130;2022-11-03T07:38:49;11.30;85.30
44063;DHT22;29727;47.606;19.130;2022-11-03T07:41:21;11.40;85.30
44063;DHT22;29727;47.606;19.130;2022-11-03T07:43:53;11.40;85.60
44063;DHT22;29727;47.606;19.130;2022-11-03T07:46:20;11.50;85.00
44063;DHT22;29727;47.606;19.130;2022-11-03T07:48:48;11.60;84.60
44063;DHT22;29727;47.606;19.130;2022-11-03T07:51:19;11.60;84.30
44063;DHT22;29727;47.606;19.130;2022-11-03T07:53:47;11.70;83.90
44063;DHT22;29727;47.606;19.130;2022-11-03T07:56:24;11.80;84.00
44063;DHT22;29727;47.606;19.130;2022-11-03T07:59:27;11.80;84.40
44063;DHT22;29727;47.606;19.130;2022-11-03T08:01:56;11.80;84.80
44063;DHT22;29727;47.606;19.130;2022-11-03T08:04:25;11.90;85.10
44063;DHT22;29727;47.606;19.130;2022-11-03T08:06:51;12.00;85.30
44063;DHT22;29727;47.606;19.130;2022-11-03T08:09:18;12.10;85.70
44063;DHT22;29727;47.606;19.130;2022-11-03T08:11:44;12.20;86.00
44063;DHT22;29727;47.606;19.130;2022-11-03T08:14:09;12.20;86.20
44063;DHT22;29727;47.606;19.130;2022-11-03T08:16:36;12.30;86.40
44063;DHT22;29727;47.606;19.130;2022-11-03T08:19:01;12.40;86.50
44063;DHT22;29727;47.606;19.130;2022-11-03T08:21:27;12.50;86.10
44063;DHT22;29727;47.606;19.130;2022-11-03T08:23:53;12.50;86.80
44063;DHT22;29727;47.606;19.130;2022-11-03T08:26:19;12.60;87.00
44063;DHT22;29727;47.606;19.130;2022-11-03T08:28:45;12.70;87.20
44063;DHT22;29727;47.606;19.130;2022-11-03T08:31:10;12.80;87.10
44063;DHT22;29727;47.606;19.130;2022-11-03T08:33:36;13.00;86.60
44063;DHT22;29727;47.606;19.130;2022-11-03T08:36:03;12.90;87.00
44063;DHT22;29727;47.606;19.130;2022-11-03T08:38:29;13.00;87.00
44063;DHT22;29727;47.606;19.130;2022-11-03T08:40:55;13.10;86.40
44063;DHT22;29727;47.606;19.130;2022-11-03T08:43:23;13.20;86.70
44063;DHT22;29727;47.606;19.130;2022-11-03T08:45:49;13.20;87.20
44063;DHT22;29727;47.606;19.130;2022-11-03T08:48:22;13.30;87.10
44063;DHT22;29727;47.606;19.130;2022-11-03T08:50:49;13.30;86.90
44063;DHT22;29727;47.606;19.130;2022-11-03T08:53:15;13.40;86.70
44063;DHT22;29727;47.606;19.130;2022-11-03T08:55:41;13.50;86.50
44063;DHT22;29727;47.606;19.130;2022-11-03T08:58:07;13.50;86.50
44063;DHT22;29727;47.606;19.130;2022-11-03T09:00:33;13.60;86.30
44063;DHT22;29727;47.606;19.130;2022-11-03T09:03:00;13.70;85.30
44063;DHT22;29727;47.606;19.130;2022-11-03T09:05:26;13.70;85.80
44063;DHT22;29727;47.606;19.130;2022-11-03T09:07:52;13.70;85.60
44063;DHT22;29727;47.606;19.130;2022-11-03T09:10:17;13.80;86.00
44063;DHT22;29727;47.606;19.130;2022-11-03T09:12:43;13.80;86.10
44063;DHT22;29727;47.606;19.130;2022-11-03T09:15:09;13.80;86.00
44063;DHT22;29727;47.606;19.130;2022-11-03T09:17:34;13.90;85.60
44063;DHT22;29727;47.606;19.130;2022-11-03T09:20:00;13.90;85.40
44063;DHT22;29727;47.606;19.130;2022-11-03T09:22:26;13.90;84.60
44063;DHT22;29727;47.606;19.130;2022-11-03T09:24:51;14.00;84.90
44063;DHT22;29727;47.606;19.130;2022-11-03T09:27:17;14.00;84.30
44063;DHT22;29727;47.606;19.130;2022-11-03T09:29:43;14.00;84.40
44063;DHT22;29727;47.606;19.130;2022-11-03T09:32:08;14.00;83.40
44063;DHT22;29727;47.606;19.130;2022-11-03T09:34:35;14.00;84.60
44063;DHT22;29727;47.606;19.130;2022-11-03T09:37:00;14.10;83.70
44063;DHT22;29727;47.606;19.130;2022-11-03T09:39:26;14.10;83.90
44063;DHT22;29727;47.606;19.130;2022-11-03T09:41:52;14.10;83.50
44063;DHT22;29727;47.606;19.130;2022-11-03T09:44:19;14.10;83.60
44063;DHT22;29727;47.606;19.130;2022-11-03T09:46:46;14.10;83.70
44063;DHT22;29727;47.606;19.130;2022-11-03T09:49:13;14.10;83.50
44063;DHT22;29727;47.606;19.130;2022-11-03T09:51:40;14.20;83.20
44063;DHT22;29727;47.606;19.130;2022-11-03T09:54:11;14.10;83.20
44063;DHT22;29727;47.606;19.130;2022-11-03T09:56:37;14.10;83.00
44063;DHT22;29727;47.606;19.130;2022-11-03T09:59:22;14.10;83.30
44063;DHT22;29727;47.606;19.130;2022-11-03T10:01:52;14.10;83.40
44063;DHT22;29727;47.606;19.130;2022-11-03T10:04:29;14.10;83.30
44063;DHT22;29727;47.606;19.130;2022-11-03T10:06:56;14.10;83.60
44063;DHT22;29727;47.606;19.130;2022-11-03T10:09:23;14.10;83.60
44063;DHT22;29727;47.606;19.130;2022-11-03T10:11:51;14.10;83.50
44063;DHT22;29727;47.606;19.130;2022-11-03T10:14:18;14.10;83.80
44063;DHT22;29727;47.606;19.130;2022-11-03T10:16:57;14.00;83.50
44063;DHT22;29727;47.606;19.130;2022-11-03T10:19:25;14.10;83.80
44063;DHT22;29727;47.606;19.130;2022-11-03T10:21:51;14.10;83.40
44063;DHT22;29727;47.606;19.130;2022-11-03T10:24:16;14.10;84.00
44063;DHT22;29727;47.606;19.130;2022-11-03T10:26:51;14.10;83.70
44063;DHT22;29727;47.606;19.130;2022-11-03T10:29:24;14.10;83.80
44063;DHT22;29727;47.606;19.130;2022-11-03T10:31:52;14.10;84.00
44063;DHT22;29727;47.606;19.130;2022-11-03T10:34:35;14.10;83.60
44063;DHT22;29727;47.606;19.130;2022-11-03T10:39:42;14.20;83.70
44063;DHT22;29727;47.606;19.130;2022-11-03T10:42:22;14.20;83.70
44063;DHT22;29727;47.606;19.130;2022-11-03T10:44:53;14.20;83.70
44063;DHT22;29727;47.606;19.130;2022-11-03T10:47:30;14.30;84.10
44063;DHT22;29727;47.606;19.130;2022-11-03T10:49:57;14.30;83.80
44063;DHT22;29727;47.606;19.130;2022-11-03T10:52:27;14.40;83.30
44063;DHT22;29727;47.606;19.130;2022-11-03T10:54:56;14.40;83.30
44063;DHT22;29727;47.606;19.130;2022-11-03T10:57:23;14.40;83.00
44063;DHT22;29727;47.606;19.130;2022-11-03T10:59:50;14.40;82.50
44063;DHT22;29727;47.606;19.130;2022-11-03T11:02:22;14.40;82.50
44063;DHT22;29727;47.606;19.130;2022-11-03T11:04:58;14.40;82.60
44063;DHT22;29727;47.606;19.130;2022-11-03T11:07:33;14.40;83.00
44063;DHT22;29727;47.606;19.130;2022-11-03T11:10:23;14.30;83.00
44063;DHT22;29727;47.606;19.130;2022-11-03T11:15:59;14.30;83.00
44063;DHT22;29727;47.606;19.130;2022-11-03T11:21:00;14.40;82.70
44063;DHT22;29727;47.606;19.130;2022-11-03T11:28:46;14.50;82.60
44063;DHT22;29727;47.606;19.130;2022-11-03T11:31:32;14.50;82.60
44063;DHT22;29727;47.606;19.130;2022-11-03T11:36:39;14.50;82.70
44063;DHT22;29727;47.606;19.130;2022-11-03T11:52:57;14.50;83.40
44063;DHT22;29727;47.606;19.130;2022-11-03T11:57:50;14.50;82.70
44063;DHT22;29727;47.606;19.130;2022-11-03T12:00:24;14.50;82.60
44063;DHT22;29727;47.606;19.130;2022-11-03T12:02:52;14.50;82.80
44063;DHT22;29727;47.606;19.130;2022-11-03T12:05:29;14.50;83.00
44063;DHT22;29727;47.606;19.130;2022-11-03T12:07:55;14.50;83.10
44063;DHT22;29727;47.606;19.130;2022-11-03T12:10:23;14.50;82.60
44063;DHT22;29727;47.606;19.130;2022-11-03T12:12:53;14.60;82.60
44063;DHT22;29727;47.606;19.130;2022-11-03T12:15:48;14.60;82.80
44063;DHT22;29727;47.606;19.130;2022-11-03T12:18:29;14.60;82.90
44063;DHT22;29727;47.606;19.130;2022-11-03T12:20:55;14.60;82.00
44063;DHT22;29727;47.606;19.130;2022-11-03T12:26:03;14.70;82.50
44063;DHT22;29727;47.606;19.130;2022-11-03T12:28:30;14.60;82.20
44063;DHT22;29727;47.606;19.130;2022-11-03T12:30:56;14.70;82.40
44063;DHT22;29727;47.606;19.130;2022-11-03T12:33:22;14.60;82.20
44063;DHT22;29727;47.606;19.130;2022-11-03T12:35:47;14.60;82.10
44063;DHT22;29727;47.606;19.130;2022-11-03T12:38:13;14.60;82.30
44063;DHT22;29727;47.606;19.130;2022-11-03T12:40:39;14.60;83.00
44063;DHT22;29727;47.606;19.130;2022-11-03T12:43:04;14.60;82.90
44063;DHT22;29727;47.606;19.130;2022-11-03T12:45:30;14.60;82.90
44063;DHT22;29727;47.606;19.130;2022-11-03T12:47:56;14.60;82.80
44063;DHT22;29727;47.606;19.130;2022-11-03T12:50:21;14.60;82.80
44063;DHT22;29727;47.606;19.130;2022-11-03T12:52:47;14.60;82.90
44063;DHT22;29727;47.606;19.130;2022-11-03T12:55:12;14.60;82.70
44063;DHT22;29727;47.606;19.130;2022-11-03T12:57:38;14.60;82.80
44063;DHT22;29727;47.606;19.130;2022-11-03T13:00:04;14.60;82.60
44063;DHT22;29727;47.606;19.130;2022-11-03T13:02:30;14.50;82.90
44063;DHT22;29727;47.606;19.130;2022-11-03T13:04:56;14.50;83.00
44063;DHT22;29727;47.606;19.130;2022-11-03T13:07:22;14.50;83.10
44063;DHT22;29727;47.606;19.130;2022-11-03T13:09:47;14.50;82.70
44063;DHT22;29727;47.606;19.130;2022-11-03T13:12:13;14.50;83.10
44063;DHT22;29727;47.606;19.130;2022-11-03T13:14:57;14.50;83.90
44063;DHT22;29727;47.606;19.130;2022-11-03T13:17:24;14.50;83.10
44063;DHT22;29727;47.606;19.130;2022-11-03T13:19:50;14.50;82.20
44063;DHT22;29727;47.606;19.130;2022-11-03T13:22:15;14.50;82.60
44063;DHT22;29727;47.606;19.130;2022-11-03T13:24:41;14.50;82.70
44063;DHT22;29727;47.606;19.130;2022-11-03T13:27:07;14.50;82.50
44063;DHT22;29727;47.606;19.130;2022-11-03T13:29:33;14.50;82.50
44063;DHT22;29727;47.606;19.130;2022-11-03T13:31:59;14.50;82.70
44063;DHT22;29727;47.606;19.130;2022-11-03T13:34:24;14.50;82.70
44063;DHT22;29727;47.606;19.130;2022-11-03T13:36:50;14.50;82.70
44063;DHT22;29727;47.606;19.130;2022-11-03T13:39:16;14.50;82.40
44063;DHT22;29727;47.606;19.130;2022-11-03T13:41:41;14.40;82.20
44063;DHT22;29727;47.606;19.130;2022-11-03T13:44:07;14.40;82.10
44063;DHT22;29727;47.606;19.130;2022-11-03T13:46:33;14.40;82.20
44063;DHT22;29727;47.606;19.130;2022-11-03T13:48:59;14.30;82.00
44063;DHT22;29727;47.606;19.130;2022-11-03T13:51:25;14.30;82.10
44063;DHT22;29727;47.606;19.130;2022-11-03T13:53:50;14.30;82.00
44063;DHT22;29727;47.606;19.130;2022-11-03T13:56:16;14.30;82.30
44063;DHT22;29727;47.606;19.130;2022-11-03T13:58:42;14.30;82.30
44063;DHT22;29727;47.606;19.130;2022-11-03T14:01:07;14.30;82.20
44063;DHT22;29727;47.606;19.130;2022-11-03T14:03:33;14.20;82.70
44063;DHT22;29727;47.606;19.130;2022-11-03T14:05:59;14.20;82.70
44063;DHT22;29727;47.606;19.130;2022-11-03T14:08:25;14.20;82.70
44063;DHT22;29727;47.606;19.130;2022-11-03T14:10:50;14.20;82.60
44063;DHT22;29727;47.606;19.130;2022-11-03T14:13:16;14.20;83.60
44063;DHT22;29727;47.606;19.130;2022-11-03T14:15:41;14.20;83.20
44063;DHT22;29727;47.606;19.130;2022-11-03T14:18:07;14.20;83.10
44063;DHT22;29727;47.606;19.130;2022-11-03T14:20:33;14.20;82.00
44063;DHT22;29727;47.606;19.130;2022-11-03T14:22:58;14.30;82.60
44063;DHT22;29727;47.606;19.130;2022-11-03T14:25:24;14.30;82.40
44063;DHT22;29727;47.606;19.130;2022-11-03T14:27:49;14.30;82.10
44063;DHT22;29727;47.606;19.130;2022-11-03T14:30:15;14.30;82.40
44063;DHT22;29727;47.606;19.130;2022-11-03T14:32:41;14.40;81.80
44063;DHT22;29727;47.606;19.130;2022-11-03T14:35:07;14.40;81.40
44063;DHT22;29727;47.606;19.130;2022-11-03T14:37:33;14.40;80.70
44063;DHT22;29727;47.606;19.130;2022-11-03T14:39:59;14.40;80.50
44063;DHT22;29727;47.606;19.130;2022-11-03T14:42:24;14.30;80.70
44063;DHT22;29727;47.606;19.130;2022-11-03T14:44:50;14.30;80.80
44063;DHT22;29727;47.606;19.130;2022-11-03T14:47:18;14.20;80.90
44063;DHT22;29727;47.606;19.130;2022-11-03T14:49:46;14.20;81.10
44063;DHT22;29727;47.606;19.130;2022-11-03T14:52:13;14.10;81.30
44063;DHT22;29727;47.606;19.130;2022-11-03T14:54:39;14.10;81.50
44063;DHT22;29727;47.606;19.130;2022-11-03T14:57:05;14.10;81.40
44063;DHT22;29727;47.606;19.130;2022-11-03T14:59:31;14.00;81.50
44063;DHT22;29727;47.606;19.130;2022-11-03T15:01:57;14.00;81.60
44063;DHT22;29727;47.606;19.130;2022-11-03T15:04:23;13.90;81.90
44063;DHT22;29727;47.606;19.130;2022-11-03T15:06:49;13.90;82.10
44063;DHT22;29727;47.606;19.130;2022-11-03T15:09:15;13.80;82.50
44063;DHT22;29727;47.606;19.130;2022-11-03T15:11:44;13.70;82.50
44063;DHT22;29727;47.606;19.130;2022-11-03T15:14:10;13.70;82.50
44063;DHT22;29727;47.606;19.130;2022-11-03T15:16:36;13.60;82.80
44063;DHT22;29727;47.606;19.130;2022-11-03T15:19:05;13.60;83.10
44063;DHT22;29727;47.606;19.130;2022-11-03T15:21:31;13.50;82.60
44063;DHT22;29727;47.606;19.130;2022-11-03T15:23:57;13.50;83.50
44063;DHT22;29727;47.606;19.130;2022-11-03T15:26:23;13.50;83.70
44063;DHT22;29727;47.606;19.130;2022-11-03T15:28:49;13.50;83.80
44063;DHT22;29727;47.606;19.130;2022-11-03T15:31:15;13.50;83.40
44063;DHT22;29727;47.606;19.130;2022-11-03T15:33:40;13.40;83.20
44063;DHT22;29727;47.606;19.130;2022-11-03T15:36:06;13.50;83.40
44063;DHT22;29727;47.606;19.130;2022-11-03T15:38:32;13.40;83.50
44063;DHT22;29727;47.606;19.130;2022-11-03T15:40:58;13.40;83.70
44063;DHT22;29727;47.606;19.130;2022-11-03T15:43:44;13.30;84.10
44063;DHT22;29727;47.606;19.130;2022-11-03T15:46:10;13.30;84.30
44063;DHT22;29727;47.606;19.130;2022-11-03T15:48:36;13.30;84.30
44063;DHT22;29727;47.606;19.130;2022-11-03T15:51:03;13.20;84.60
44063;DHT22;29727;47.606;19.130;2022-11-03T15:53:28;13.20;84.80
44063;DHT22;29727;47.606;19.130;2022-11-03T15:55:54;13.20;84.90
44063;DHT22;29727;47.606;19.130;2022-11-03T15:58:19;13.10;85.10
44063;DHT22;29727;47.606;19.130;2022-11-03T16:00:45;13.10;85.10
44063;DHT22;29727;47.606;19.130;2022-11-03T16:03:11;13.10;84.90
44063;DHT22;29727;47.606;19.130;2022-11-03T16:05:36;13.10;85.10
44063;DHT22;29727;47.606;19.130;2022-11-03T16:08:02;13.10;84.90
44063;DHT22;29727;47.606;19.130;2022-11-03T16:10:28;13.00;85.00
44063;DHT22;29727;47.606;19.130;2022-11-03T16:12:56;13.00;85.00
44063;DHT22;29727;47.606;19.130;2022-11-03T16:15:22;12.90;84.90
44063;DHT22;29727;47.606;19.130;2022-11-03T16:17:47;12.80;85.10
44063;DHT22;29727;47.606;19.130;2022-11-03T16:20:13;12.80;84.90
44063;DHT22;29727;47.606;19.130;2022-11-03T16:22:39;12.70;85.40
44063;DHT22;29727;47.606;19.130;2022-11-03T16:25:05;12.70;85.90
44063;DHT22;29727;47.606;19.130;2022-11-03T16:27:30;12.70;86.20
44063;DHT22;29727;47.606;19.130;2022-11-03T16:29:56;12.70;85.70